createdAt,value
2022-10-15T00:01:51.338Z,15.00
2022-10-15T00:04:18.634Z,14.90
2022-10-15T00:06:46.001Z,14.90
2022-10-15T00:09:13.370Z,14.90
2022-10-15T00:11:40.617Z,14.90
2022-10-15T00:14:07.880Z,14.90
2022-10-15T00:16:35.453Z,14.90
2022-10-15T00:19:02.703Z,14.80
2022-10-15T00:21:30.302Z,14.80
2022-10-15T00:23:58.259Z,14.80
2022-10-15T00:26:28.843Z,14.80
2022-10-15T00:29:01.629Z,14.80
2022-10-15T00:31:31.799Z,14.80
2022-10-15T00:34:02.893Z,14.70
2022-10-15T00:36:36.224Z,14.70
2022-10-15T00:39:06.768Z,14.70
2022-10-15T00:41:40.069Z,14.60
2022-10-15T00:44:22.246Z,14.60
2022-10-15T00:46:57.426Z,14.60
2022-10-15T00:49:40.432Z,14.60
2022-10-15T00:52:17.301Z,14.50
2022-10-15T00:54:52.957Z,14.50
2022-10-15T00:57:20.519Z,14.50
2022-10-15T00:59:57.652Z,14.50
2022-10-15T01:02:25.370Z,14.50
2022-10-15T01:05:04.095Z,14.50
2022-10-15T01:07:31.393Z,14.50
2022-10-15T01:09:58.743Z,14.50
2022-10-15T01:12:49.421Z,14.50
2022-10-15T01:15:37.703Z,14.50
2022-10-15T01:18:34.535Z,14.50
2022-10-15T01:22:03.501Z,14.40
2022-10-15T01:24:36.759Z,14.50
2022-10-15T01:27:23.663Z,14.40
2022-10-15T01:30:23.937Z,14.40
2022-10-15T01:34:10.417Z,14.40
2022-10-15T01:37:06.811Z,14.40
2022-10-15T01:39:41.872Z,14.40
2022-10-15T01:42:51.834Z,14.30
2022-10-15T01:45:29.600Z,14.30
2022-10-15T01:48:03.922Z,14.30
2022-10-15T01:50:34.948Z,14.30
2022-10-15T01:53:06.054Z,14.20
2022-10-15T01:55:36.397Z,14.20
2022-10-15T01:58:06.525Z,14.20
2022-10-15T02:00:34.413Z,14.20
2022-10-15T02:03:02.975Z,14.10
2022-10-15T02:05:39.242Z,14.20
2022-10-15T02:08:37.942Z,14.20
2022-10-15T02:11:19.875Z,14.20
2022-10-15T02:14:15.584Z,14.20
2022-10-15T02:17:03.224Z,14.20
2022-10-15T02:20:00.520Z,14.10
2022-10-15T02:22:52.617Z,14.10
2022-10-15T02:25:24.638Z,14.10
2022-10-15T02:27:54.993Z,14.10
2022-10-15T02:30:23.134Z,14.00
2022-10-15T02:32:58.611Z,14.00
2022-10-15T02:35:28.050Z,14.00
2022-10-15T02:38:00.906Z,14.00
2022-10-15T02:40:32.856Z,14.00
2022-10-15T02:43:01.219Z,14.00
2022-10-15T02:45:29.211Z,14.10
2022-10-15T02:47:56.455Z,14.10
2022-10-15T02:50:23.700Z,14.10
2022-10-15T02:52:51.248Z,14.10
2022-10-15T02:55:18.552Z,14.10
2022-10-15T02:57:46.851Z,14.10
2022-10-15T03:00:15.897Z,14.20
2022-10-15T03:02:43.200Z,14.30
2022-10-15T03:05:10.940Z,14.20
2022-10-15T03:07:38.545Z,14.20
2022-10-15T03:10:07.315Z,14.30
2022-10-15T03:12:36.071Z,14.30
2022-10-15T03:15:04.159Z,14.30
2022-10-15T03:17:31.399Z,14.20
2022-10-15T03:19:58.795Z,14.30
2022-10-15T03:22:26.019Z,14.30
2022-10-15T03:24:53.514Z,14.30
2022-10-15T03:27:22.324Z,14.30
2022-10-15T03:29:49.796Z,14.30
2022-10-15T03:32:17.343Z,14.30
2022-10-15T03:34:45.004Z,14.30
2022-10-15T03:37:13.278Z,14.30
2022-10-15T03:39:40.609Z,14.30
2022-10-15T03:42:07.848Z,14.30
2022-10-15T03:44:36.308Z,14.30
2022-10-15T03:47:03.602Z,14.30
2022-10-15T03:49:33.143Z,14.30
2022-10-15T03:52:00.532Z,14.30
2022-10-15T03:54:28.098Z,14.30
2022-10-15T03:56:55.776Z,14.30
2022-10-15T03:59:23.041Z,14.30
2022-10-15T04:01:52.698Z,14.30
2022-10-15T04:04:20.053Z,14.40
2022-10-15T04:06:47.936Z,14.40
2022-10-15T04:09:15.675Z,14.40
2022-10-15T04:11:43.036Z,14.40
2022-10-15T04:14:10.380Z,14.40
2022-10-15T04:16:37.964Z,14.40
2022-10-15T04:19:07.380Z,14.40
2022-10-15T04:21:37.690Z,14.40
2022-10-15T04:24:05.149Z,14.40
2022-10-15T04:26:39.577Z,14.40
2022-10-15T04:29:06.909Z,14.40
2022-10-15T04:31:34.504Z,14.30
2022-10-15T04:34:02.025Z,14.20
2022-10-15T04:36:29.436Z,14.20
2022-10-15T04:38:56.710Z,14.10
2022-10-15T04:41:24.108Z,14.10
2022-10-15T04:43:51.604Z,14.10
2022-10-15T04:46:20.043Z,14.10
2022-10-15T04:48:47.676Z,14.10
2022-10-15T04:51:18.920Z,14.10
2022-10-15T04:53:47.456Z,14.20
2022-10-15T04:56:19.615Z,14.20
2022-10-15T04:58:49.616Z,14.10
2022-10-15T05:01:20.352Z,14.10
2022-10-15T05:03:49.363Z,14.20
2022-10-15T05:06:22.269Z,14.20
2022-10-15T05:08:51.380Z,14.20
2022-10-15T05:11:25.582Z,14.20
2022-10-15T05:13:56.490Z,14.20
2022-10-15T05:16:29.613Z,14.30
2022-10-15T05:19:02.750Z,14.30
2022-10-15T05:21:31.598Z,14.30
2022-10-15T05:23:59.964Z,14.30
2022-10-15T05:26:30.069Z,14.40
2022-10-15T05:28:59.543Z,14.40
2022-10-15T05:31:30.719Z,14.40
2022-10-15T05:34:01.819Z,14.40
2022-10-15T05:36:31.289Z,14.40
2022-10-15T05:39:01.683Z,14.40
2022-10-15T05:41:30.419Z,14.50
2022-10-15T05:43:59.331Z,14.60
2022-10-15T05:46:28.049Z,14.60
2022-10-15T05:48:57.930Z,14.70
2022-10-15T05:51:27.764Z,14.80
2022-10-15T05:53:57.387Z,14.80
2022-10-15T05:56:26.585Z,14.90
2022-10-15T05:58:55.731Z,14.90
2022-10-15T06:01:23.451Z,14.90
2022-10-15T06:03:50.672Z,15.00
2022-10-15T06:06:29.113Z,15.00
2022-10-15T06:08:58.809Z,15.10
2022-10-15T06:11:26.176Z,15.10
2022-10-15T06:13:53.563Z,15.10
2022-10-15T06:16:23.792Z,15.00
2022-10-15T06:18:53.759Z,15.00
2022-10-15T06:21:21.735Z,15.00
2022-10-15T06:23:49.213Z,15.10
2022-10-15T06:26:16.861Z,15.20
2022-10-15T06:28:44.319Z,15.20
2022-10-15T06:31:12.417Z,15.30
2022-10-15T06:33:39.719Z,15.30
2022-10-15T06:36:13.795Z,15.30
2022-10-15T06:38:44.182Z,15.30
2022-10-15T06:41:11.805Z,15.40
2022-10-15T06:43:39.275Z,15.40
2022-10-15T06:46:07.241Z,15.50
2022-10-15T06:48:36.046Z,15.50
2022-10-15T06:51:04.274Z,15.60
2022-10-15T06:53:55.591Z,15.70
2022-10-15T06:56:23.052Z,15.90
2022-10-15T06:58:50.367Z,15.90
2022-10-15T07:01:17.824Z,15.90
2022-10-15T07:03:45.270Z,15.90
2022-10-15T07:06:13.006Z,15.90
2022-10-15T07:08:40.324Z,15.90
2022-10-15T07:11:09.464Z,15.80
2022-10-15T07:13:37.602Z,15.80
2022-10-15T07:16:08.835Z,15.80
2022-10-15T07:18:37.475Z,15.80
2022-10-15T07:21:07.343Z,15.80
2022-10-15T07:23:34.912Z,15.90
2022-10-15T07:26:02.573Z,16.00
2022-10-15T07:28:30.714Z,16.10
2022-10-15T07:31:07.483Z,16.10
2022-10-15T07:33:35.519Z,16.30
2022-10-15T07:36:12.823Z,16.30
2022-10-15T07:38:41.873Z,16.40
2022-10-15T07:41:11.012Z,16.50
2022-10-15T07:43:38.739Z,16.40
2022-10-15T07:46:06.895Z,16.30
2022-10-15T07:48:35.054Z,16.10
2022-10-15T07:51:07.921Z,16.00
2022-10-15T07:53:35.445Z,15.90
2022-10-15T07:56:08.265Z,15.80
2022-10-15T07:58:38.061Z,15.80
2022-10-15T08:01:08.558Z,15.70
2022-10-15T08:03:38.011Z,15.70
2022-10-15T08:06:08.013Z,15.70
2022-10-15T08:08:36.973Z,15.70
2022-10-15T08:11:13.601Z,15.70
2022-10-15T08:13:42.316Z,15.80
2022-10-15T08:16:13.522Z,15.80
2022-10-15T08:18:41.214Z,15.80
2022-10-15T08:21:09.201Z,15.90
2022-10-15T08:23:36.891Z,15.90
2022-10-15T08:26:04.785Z,16.00
2022-10-15T08:28:34.964Z,16.00
2022-10-15T08:31:05.577Z,16.10
2022-10-15T08:33:35.653Z,16.20
2022-10-15T08:36:06.534Z,16.30
2022-10-15T08:38:34.665Z,16.40
2022-10-15T08:41:05.500Z,16.50
2022-10-15T08:43:38.724Z,16.40
2022-10-15T08:46:44.559Z,16.40
2022-10-15T08:49:45.900Z,16.50
2022-10-15T08:52:28.237Z,16.50
2022-10-15T08:54:59.071Z,16.60
2022-10-15T08:58:08.107Z,16.70
2022-10-15T09:00:54.379Z,16.80
2022-10-15T09:03:34.729Z,16.90
2022-10-15T09:06:16.834Z,16.90
2022-10-15T09:08:43.889Z,17.10
2022-10-15T09:11:24.942Z,17.20
2022-10-15T09:13:52.768Z,17.20
2022-10-15T09:16:27.872Z,17.30
2022-10-15T09:18:56.393Z,17.30
2022-10-15T09:21:28.118Z,17.40
2022-10-15T09:23:58.619Z,17.40
2022-10-15T09:26:38.457Z,17.50
2022-10-15T09:29:11.444Z,17.60
2022-10-15T09:31:46.740Z,17.70
2022-10-15T09:34:33.489Z,17.70
2022-10-15T09:37:16.373Z,17.80
2022-10-15T09:39:58.249Z,17.90
2022-10-15T09:42:31.087Z,18.00
2022-10-15T09:45:02.569Z,18.10
2022-10-15T09:47:32.591Z,18.00
2022-10-15T09:50:00.258Z,18.00
2022-10-15T09:52:46.001Z,18.00
2022-10-15T09:55:19.025Z,17.90
2022-10-15T09:57:51.544Z,17.80
2022-10-15T10:00:18.967Z,17.70
2022-10-15T10:03:05.996Z,17.60
2022-10-15T10:05:35.850Z,17.50
2022-10-15T10:08:23.125Z,17.40
2022-10-15T10:10:56.927Z,17.30
2022-10-15T10:13:59.643Z,17.20
2022-10-15T10:16:28.856Z,17.20
2022-10-15T10:19:12.680Z,17.10
2022-10-15T10:21:42.871Z,17.10
2022-10-15T10:24:32.058Z,17.10
2022-10-15T10:27:00.194Z,17.00
2022-10-15T10:29:34.211Z,17.00
2022-10-15T10:32:19.055Z,17.10
2022-10-15T10:34:51.512Z,17.10
2022-10-15T10:37:20.759Z,17.20
2022-10-15T10:39:56.814Z,17.30
2022-10-15T10:42:38.147Z,17.40
2022-10-15T10:45:18.892Z,17.60
2022-10-15T10:47:47.498Z,17.60
2022-10-15T10:50:40.629Z,17.70
2022-10-15T10:53:23.103Z,17.70
2022-10-15T10:55:53.787Z,17.70
2022-10-15T10:58:26.333Z,17.70
2022-10-15T11:00:58.390Z,17.70
2022-10-15T11:03:41.288Z,17.70
2022-10-15T11:06:08.595Z,17.70
2022-10-15T11:09:04.755Z,17.80
2022-10-15T11:11:52.071Z,17.80
2022-10-15T11:14:37.555Z,17.70
2022-10-15T11:17:36.679Z,17.70
2022-10-15T11:23:16.913Z,17.70
2022-10-15T11:26:21.582Z,17.60
2022-10-15T11:29:03.900Z,17.60
2022-10-15T11:32:02.014Z,17.60
2022-10-15T11:34:54.788Z,17.70
2022-10-15T11:37:58.997Z,17.70
2022-10-15T11:40:58.279Z,17.70
2022-10-15T11:43:58.018Z,17.70
2022-10-15T11:46:47.709Z,17.60
2022-10-15T11:49:22.427Z,17.70
2022-10-15T11:52:07.171Z,17.70
2022-10-15T11:54:47.766Z,17.60
2022-10-15T11:57:19.269Z,17.60
2022-10-15T12:00:07.263Z,17.60
2022-10-15T12:02:37.206Z,17.60
2022-10-15T12:05:12.914Z,17.70
2022-10-15T12:07:45.553Z,17.70
2022-10-15T12:10:12.821Z,17.70
2022-10-15T12:12:49.655Z,17.70
2022-10-15T12:15:43.272Z,17.70
2022-10-15T12:18:13.089Z,17.70
2022-10-15T12:20:43.009Z,17.70
2022-10-15T12:23:33.330Z,17.60
2022-10-15T12:26:00.487Z,17.50
2022-10-15T12:28:31.378Z,17.50
2022-10-15T12:31:03.483Z,17.40
2022-10-15T12:33:46.624Z,17.30
2022-10-15T12:36:19.825Z,17.30
2022-10-15T12:39:47.732Z,17.20
2022-10-15T12:42:28.699Z,17.10
2022-10-15T12:44:57.435Z,17.00
2022-10-15T12:47:50.261Z,16.90
2022-10-15T12:50:26.094Z,16.80
2022-10-15T12:53:22.680Z,16.70
2022-10-15T12:56:09.840Z,16.70
2022-10-15T12:58:36.929Z,16.60
2022-10-15T13:01:13.025Z,16.50
2022-10-15T13:03:53.143Z,16.40
2022-10-15T13:06:20.431Z,16.40
2022-10-15T13:08:51.705Z,16.40
2022-10-15T13:11:25.381Z,16.40
2022-10-15T13:13:59.432Z,16.40
2022-10-15T13:16:26.850Z,16.30
2022-10-15T13:18:56.046Z,16.30
2022-10-15T13:21:52.042Z,16.30
2022-10-15T13:24:23.258Z,16.30
2022-10-15T13:26:51.295Z,16.30
2022-10-15T13:29:23.939Z,16.30
2022-10-15T13:31:53.093Z,16.30
2022-10-15T13:34:26.816Z,16.30
2022-10-15T13:36:56.535Z,16.20
2022-10-15T13:39:35.256Z,16.30
2022-10-15T13:42:16.239Z,16.20
2022-10-15T13:44:55.429Z,16.20
2022-10-15T13:47:26.895Z,16.20
2022-10-15T13:50:14.257Z,16.20
2022-10-15T13:52:44.062Z,16.20
2022-10-15T13:55:23.735Z,16.10
2022-10-15T13:57:58.044Z,16.00
2022-10-15T14:00:29.458Z,16.00
2022-10-15T14:03:22.600Z,15.90
2022-10-15T14:05:52.998Z,15.90
2022-10-15T14:08:27.718Z,15.90
2022-10-15T14:10:59.340Z,15.80
2022-10-15T14:13:27.951Z,15.80
2022-10-15T14:16:14.912Z,15.80
2022-10-15T14:18:48.321Z,15.90
2022-10-15T14:21:20.004Z,15.90
2022-10-15T14:23:48.691Z,15.90
2022-10-15T14:26:24.274Z,15.90
2022-10-15T14:28:53.115Z,15.80
2022-10-15T14:31:33.592Z,15.80
2022-10-15T14:34:00.753Z,15.80
2022-10-15T14:36:42.141Z,15.80
2022-10-15T14:39:30.565Z,15.70
2022-10-15T14:42:03.588Z,15.70
2022-10-15T14:44:42.329Z,15.70
2022-10-15T14:47:19.724Z,15.60
2022-10-15T14:49:47.630Z,15.70
2022-10-15T14:52:20.649Z,15.60
2022-10-15T14:54:55.728Z,15.60
2022-10-15T14:57:24.452Z,15.60
2022-10-15T14:59:57.143Z,15.60
2022-10-15T15:02:28.173Z,15.50
2022-10-15T15:05:19.833Z,15.50
2022-10-15T15:07:48.287Z,15.50
2022-10-15T15:10:15.932Z,15.50
2022-10-15T15:12:53.220Z,15.50
2022-10-15T15:15:22.816Z,15.40
2022-10-15T15:17:50.950Z,15.40
2022-10-15T15:20:20.679Z,15.40
2022-10-15T15:22:54.131Z,15.30
2022-10-15T15:25:28.680Z,15.30
2022-10-15T15:27:56.416Z,15.30
2022-10-15T15:30:25.699Z,15.30
2022-10-15T15:32:54.331Z,15.30
2022-10-15T15:35:27.261Z,15.30
2022-10-15T15:37:54.545Z,15.20
2022-10-15T15:40:22.255Z,15.20
2022-10-15T15:42:50.755Z,15.20
2022-10-15T15:45:24.368Z,15.10
2022-10-15T15:47:51.960Z,15.10
2022-10-15T15:50:21.418Z,15.10
2022-10-15T15:52:48.718Z,15.00
2022-10-15T15:55:16.796Z,15.00
2022-10-15T15:57:46.274Z,14.90
2022-10-15T16:00:16.051Z,14.90
2022-10-15T16:02:43.787Z,14.80
2022-10-15T16:05:13.837Z,14.80
2022-10-15T16:07:40.964Z,14.80
2022-10-15T16:10:11.858Z,14.80
2022-10-15T16:12:40.105Z,14.70
2022-10-15T16:15:11.593Z,14.70
2022-10-15T16:17:41.744Z,14.70
2022-10-15T16:20:11.032Z,14.70
2022-10-15T16:22:38.479Z,14.80
2022-10-15T16:25:06.087Z,14.80
2022-10-15T16:27:34.588Z,14.80
2022-10-15T16:30:02.857Z,14.90
2022-10-15T16:32:30.150Z,14.90
2022-10-15T16:34:57.234Z,14.80
2022-10-15T16:37:24.550Z,14.80
2022-10-15T16:39:52.181Z,14.80
2022-10-15T16:42:21.715Z,14.80
2022-10-15T16:44:51.020Z,14.80
2022-10-15T16:47:18.327Z,14.80
2022-10-15T16:49:45.535Z,14.80
2022-10-15T16:52:12.764Z,14.90
2022-10-15T16:54:39.899Z,14.90
2022-10-15T16:57:07.061Z,14.90
2022-10-15T16:59:34.146Z,14.90
2022-10-15T17:02:01.466Z,14.90
2022-10-15T17:04:28.767Z,14.80
2022-10-15T17:06:56.130Z,14.80
2022-10-15T17:09:23.876Z,14.80
2022-10-15T17:11:51.168Z,14.80
2022-10-15T17:14:18.613Z,14.80
2022-10-15T17:16:48.304Z,14.80
2022-10-15T17:19:23.568Z,14.80
2022-10-15T17:21:51.823Z,14.80
2022-10-15T17:24:19.779Z,14.80
2022-10-15T17:26:47.851Z,14.80
2022-10-15T17:29:20.985Z,14.80
2022-10-15T17:31:49.520Z,14.80
2022-10-15T17:34:17.054Z,14.80
2022-10-15T17:36:48.280Z,14.80
2022-10-15T17:39:18.782Z,14.80
2022-10-15T17:41:46.422Z,14.80
2022-10-15T17:44:13.700Z,14.80
2022-10-15T17:46:41.086Z,14.80
2022-10-15T17:49:11.044Z,14.80
2022-10-15T17:51:38.313Z,14.90
2022-10-15T17:54:05.981Z,14.90
2022-10-15T17:56:36.324Z,14.90
2022-10-15T17:59:07.183Z,14.90
2022-10-15T18:01:57.874Z,15.00
2022-10-15T18:04:27.144Z,15.00
2022-10-15T18:06:56.394Z,15.10
2022-10-15T18:09:25.141Z,15.10
2022-10-15T18:11:52.663Z,15.10
2022-10-15T18:14:23.083Z,15.10
2022-10-15T18:16:51.814Z,15.10
2022-10-15T18:19:19.568Z,15.20
2022-10-15T18:21:49.485Z,15.20
2022-10-15T18:24:21.834Z,15.20
2022-10-15T18:26:53.650Z,15.20
2022-10-15T18:29:22.510Z,15.30
2022-10-15T18:31:53.588Z,15.30
2022-10-15T18:34:22.443Z,15.30
2022-10-15T18:36:50.875Z,15.30
2022-10-15T18:39:18.357Z,15.30
2022-10-15T18:41:45.806Z,15.30
2022-10-15T18:44:16.839Z,15.30
2022-10-15T18:46:45.728Z,15.40
2022-10-15T18:49:15.843Z,15.40
2022-10-15T18:51:46.221Z,15.40
2022-10-15T18:54:14.128Z,15.40
2022-10-15T18:56:41.664Z,15.40
2022-10-15T18:59:09.976Z,15.40
2022-10-15T19:01:44.199Z,15.40
2022-10-15T19:04:15.995Z,15.40
2022-10-15T19:06:46.640Z,15.40
2022-10-15T19:09:21.254Z,15.40
2022-10-15T19:11:52.035Z,15.40
2022-10-15T19:14:22.473Z,15.40
2022-10-15T19:16:50.840Z,15.50
2022-10-15T19:19:21.453Z,15.40
2022-10-15T19:21:51.883Z,15.50
2022-10-15T19:24:21.400Z,15.40
2022-10-15T19:26:51.429Z,15.40
2022-10-15T19:29:19.229Z,15.40
2022-10-15T19:31:50.115Z,15.50
2022-10-15T19:34:17.667Z,15.50
2022-10-15T19:36:48.597Z,15.50
2022-10-15T19:39:21.204Z,15.50
2022-10-15T19:41:49.769Z,15.50
2022-10-15T19:44:24.853Z,15.50
2022-10-15T19:46:52.455Z,15.50
2022-10-15T19:49:20.229Z,15.50
2022-10-15T19:51:49.276Z,15.50
2022-10-15T19:54:17.715Z,15.50
2022-10-15T19:56:45.413Z,15.50
2022-10-15T19:59:12.831Z,15.40
2022-10-15T20:01:40.455Z,15.40
2022-10-15T20:04:09.144Z,15.40
2022-10-15T20:06:38.762Z,15.40
2022-10-15T20:09:07.524Z,15.40
2022-10-15T20:11:35.788Z,15.40
2022-10-15T20:14:03.909Z,15.50
2022-10-15T20:16:33.140Z,15.50
2022-10-15T20:19:06.037Z,15.50
2022-10-15T20:21:33.490Z,15.50
2022-10-15T20:24:04.565Z,15.50
2022-10-15T20:26:33.477Z,15.50
2022-10-15T20:29:01.161Z,15.50
2022-10-15T20:31:32.789Z,15.50
2022-10-15T20:34:01.264Z,15.50
2022-10-15T20:36:31.015Z,15.50
2022-10-15T20:39:01.075Z,15.50
2022-10-15T20:41:29.184Z,15.40
2022-10-15T20:43:56.959Z,15.40
2022-10-15T20:46:37.010Z,15.40
2022-10-15T20:51:45.545Z,15.40
2022-10-15T20:54:14.799Z,15.40
2022-10-15T20:56:42.722Z,15.40
2022-10-15T20:59:09.994Z,15.40
2022-10-15T21:01:37.922Z,15.40
2022-10-15T21:04:05.918Z,15.40
2022-10-15T21:06:33.604Z,15.40
2022-10-15T21:09:01.326Z,15.40
2022-10-15T21:11:29.019Z,15.40
2022-10-15T21:13:58.810Z,15.30
2022-10-15T21:16:28.325Z,15.30
2022-10-15T21:18:56.937Z,15.20
2022-10-15T21:21:24.188Z,15.20
2022-10-15T21:23:52.555Z,15.10
2022-10-15T21:26:20.812Z,15.10
2022-10-15T21:28:48.157Z,15.10
2022-10-15T21:31:17.890Z,15.10
2022-10-15T21:33:46.418Z,15.10
2022-10-15T21:36:22.233Z,15.10
2022-10-15T21:38:54.535Z,15.20
2022-10-15T21:41:26.624Z,15.20
2022-10-15T21:43:54.335Z,15.20
2022-10-15T21:46:21.844Z,15.20
2022-10-15T21:48:49.622Z,15.20
2022-10-15T21:51:21.914Z,15.20
2022-10-15T21:53:49.316Z,15.20
2022-10-15T21:56:17.871Z,15.20
2022-10-15T21:58:45.326Z,15.20
2022-10-15T22:01:19.437Z,15.20
2022-10-15T22:03:49.235Z,15.20
2022-10-15T22:06:18.073Z,15.10
2022-10-15T22:08:45.857Z,15.00
2022-10-15T22:11:20.386Z,15.00
2022-10-15T22:13:51.563Z,15.00
2022-10-15T22:16:20.585Z,14.90
2022-10-15T22:18:48.324Z,14.90
2022-10-15T22:21:23.353Z,14.90
2022-10-15T22:23:54.705Z,14.90
2022-10-15T22:26:35.003Z,14.90
2022-10-15T22:29:04.885Z,14.90
2022-10-15T22:31:33.283Z,14.90
2022-10-15T22:34:01.036Z,14.80
2022-10-15T22:36:30.868Z,14.90
2022-10-15T22:39:02.074Z,14.90
2022-10-15T22:41:35.923Z,14.90
2022-10-15T22:44:03.830Z,14.90
2022-10-15T22:46:37.624Z,14.90
2022-10-15T22:49:07.919Z,15.00
2022-10-15T22:51:35.508Z,15.00
2022-10-15T22:54:02.929Z,15.00
2022-10-15T22:56:31.375Z,15.00
2022-10-15T22:59:00.488Z,15.10
2022-10-15T23:01:33.831Z,15.10
2022-10-15T23:04:07.028Z,15.10
2022-10-15T23:06:37.469Z,15.10
2022-10-15T23:09:07.550Z,15.20
2022-10-15T23:11:39.030Z,15.20
2022-10-15T23:14:17.684Z,15.20
2022-10-15T23:16:47.870Z,15.20
2022-10-15T23:19:20.217Z,15.20
2022-10-15T23:21:53.984Z,15.20
2022-10-15T23:24:23.560Z,15.10
2022-10-15T23:26:51.273Z,15.10
2022-10-15T23:29:22.385Z,15.10
2022-10-15T23:31:50.816Z,15.10
2022-10-15T23:34:22.331Z,15.10
2022-10-15T23:36:50.544Z,15.10
2022-10-15T23:39:22.461Z,15.00
2022-10-15T23:41:50.428Z,15.00
2022-10-15T23:44:19.426Z,14.90
2022-10-15T23:46:47.651Z,14.90
2022-10-15T23:49:16.524Z,14.80
2022-10-15T23:51:43.898Z,14.80
2022-10-15T23:54:16.420Z,14.70
2022-10-15T23:56:45.353Z,14.60
2022-10-15T23:59:12.840Z,14.60
